ADDS METAR Data INFO
IDs: Format: Raw Decoded Include TAF

Data at: 1305 UTC 19 Jul 2018

KRYY 191248Z VRB03KT 10SM SCT028 25/22 A3001 RMK AO2 SLP882 T02500217
KRYY 191048Z 09004KT 10SM CLR 22/21 A2999 RMK AO2 SLP874 T02220206
KRYY 190948Z AUTO 00000KT 10SM CLR 22/20 A2997 RMK AO2 SLP869 T02220200
KRYY 190848Z AUTO 00000KT 10SM CLR 23/20 A2996 RMK AO2 SLP865 T02280200 55002
KRYY 190748Z AUTO 00000KT 10SM CLR 23/20 A2994 RMK AO2 SLP860 T02280200
KRYY 190648Z AUTO 10003KT 10SM CLR 23/20 A2995 RMK AO2 SLP863 T02330200
KRYY 190548Z AUTO 00000KT 10SM CLR 24/19 A2996 RMK AO2 SLP866 T02390194 10294 20233 58007
KRYY 190448Z AUTO 00000KT 10SM CLR 24/20 A2997 RMK AO2 SLP870 T02440200
KRYY 190348Z AUTO 00000KT 10SM CLR 25/19 A2998 RMK AO2 SLP873 T02500189 403280228
KRYY 190248Z AUTO 00000KT 10SM CLR 25/19 A2998 RMK AO2 SLP874 T02500194 53014
KRYY 190148Z 32006KT 10SM CLR 27/19 A2997 RMK AO2 LTG DSNT SE SLP868 T02670194
KRYY 190048Z 00000KT 10SM SCT075 28/19 A2995 RMK AO2 SLP863 T02780194
KRYY 182348Z 34006KT 10SM SCT055 29/22 A2994 RMK AO2 SLP860 T02940217 10328 20294 53001
KRYY 182248Z 33006KT 10SM CLR 31/21 A2993 RMK AO2 SLP856 T03110211
KRYY 182148Z VRB04KT 10SM CLR 32/21 A2993 RMK AO2 SLP855 T03170206
KRYY 182048Z 30007KT 10SM SCT045 32/19 A2994 RMK AO2 SLP859 T03220194 58017
KRYY 181948Z 33007KT 280V360 10SM SCT045 32/21 A2996 RMK AO2 SLP866 T03170211
KRYY 181848Z VRB03KT 10SM FEW045 32/22 A2998 RMK AO2 SLP871 T03170217
KRYY 181748Z 30005KT 10SM CLR 31/22 A2999 RMK AO2 SLP876 T03110222 10317 20228 58009
KRYY 181648Z 33006KT 10SM SCT031 30/22 A3001 RMK AO2 SLP882 T03000222
KRYY 181548Z 30005KT 10SM CLR 29/23 A3002 RMK AO2 SLP886 T02890228
KRYY 181448Z 25004KT 10SM CLR 27/23 A3002 RMK AO2 SLP885 T02720228 50002
KRYY 181348Z 31004KT 7SM SCT008 26/23 A3002 RMK AO2 SLP887 T02610228
KRYY 181317Z 00000KT 7SM SCT008 24/22 A3002 RMK AO2
KRYY 181248Z 32005KT 5SM BR BKN006 23/22 A3003 RMK AO2 SLP887 T02330217
KRYY 181148Z 31006KT 3SM BR BKN005 23/22 A3001 RMK AO2 SLP883 T02280217 10250 20228 51014
KRYY 181048Z 00000KT 3SM BR BKN005 23/22 A2999 RMK AO2 SLP876 T02330222
KRYY 181003Z AUTO 00000KT 10SM BKN004 23/22 A2997 RMK AO2
KRYY 180948Z AUTO 27005KT 10SM FEW004 23/22 A2997 RMK AO2 SLP869 T02330222
KRYY 180848Z AUTO 26005KT 10SM FEW004 23/22 A2996 RMK AO2 SLP866 T02330222 56013
KRYY 180830Z AUTO 28003KT 10SM FEW005 23/22 A2996 RMK AO2
KRYY 180748Z AUTO 29003KT 10SM CLR 24/23 A2997 RMK AO2 SLP868 T02390228
KRYY 180648Z AUTO 23003KT 10SM CLR 24/23 A2998 RMK AO2 SLP873 T02390228
KRYY 180548Z AUTO 28004KT 10SM CLR 25/23 A3000 RMK AO2 SLP878 T02500228 10272 20244 58005
KRYY 180448Z AUTO 27006KT 10SM BKN110 26/23 A3001 RMK AO2 SLP882 T02560228
KRYY 180348Z AUTO 26004KT 10SM FEW025 BKN120 26/23 A3001 RMK AO2 SLP882 T02560228 403280222
KRYY 180248Z AUTO 00000KT 10SM CLR 26/23 A3001 RMK AO2 SLP883 T02560228 52006
KRYY 180148Z 26003KT 10SM CLR 27/23 A3000 RMK AO2 SLP879 T02670228